sensor_id;sensor_type;location;lat;lon;timestamp;P1;durP1;ratioP1;P2;durP2;ratioP2
61091;SDS011;46975;51.898;11.444;2022-10-31T00:02:19;12.18;;;6.80;;
61091;SDS011;46975;51.898;11.444;2022-10-31T00:04:45;13.73;;;7.72;;
61091;SDS011;46975;51.898;11.444;2022-10-31T00:07:11;14.77;;;6.50;;
61091;SDS011;46975;51.898;11.444;2022-10-31T00:09:37;13.05;;;6.43;;
61091;SDS011;46975;51.898;11.444;2022-10-31T00:12:02;12.20;;;5.65;;
61091;SDS011;46975;51.898;11.444;2022-10-31T00:14:28;9.45;;;5.28;;
61091;SDS011;46975;51.898;11.444;2022-10-31T00:16:54;9.82;;;4.40;;
61091;SDS011;46975;51.898;11.444;2022-10-31T00:19:19;6.85;;;5.10;;
61091;SDS011;46975;51.898;11.444;2022-10-31T00:21:45;15.75;;;6.72;;
61091;SDS011;46975;51.898;11.444;2022-10-31T00:24:11;9.70;;;4.70;;
61091;SDS011;46975;51.898;11.444;2022-10-31T00:26:36;8.23;;;4.50;;
61091;SDS011;46975;51.898;11.444;2022-10-31T00:29:02;8.98;;;5.30;;
61091;SDS011;46975;51.898;11.444;2022-10-31T00:31:28;19.60;;;6.80;;
61091;SDS011;46975;51.898;11.444;2022-10-31T00:33:54;23.27;;;10.98;;
61091;SDS011;46975;51.898;11.444;2022-10-31T00:36:20;32.85;;;13.05;;
61091;SDS011;46975;51.898;11.444;2022-10-31T00:38:46;35.45;;;12.10;;
61091;SDS011;46975;51.898;11.444;2022-10-31T00:41:13;23.40;;;11.25;;
61091;SDS011;46975;51.898;11.444;2022-10-31T00:43:41;12.43;;;6.35;;
61091;SDS011;46975;51.898;11.444;2022-10-31T00:46:07;14.85;;;6.43;;
61091;SDS011;46975;51.898;11.444;2022-10-31T00:48:33;11.18;;;5.35;;
61091;SDS011;46975;51.898;11.444;2022-10-31T00:50:59;8.82;;;4.22;;
61091;SDS011;46975;51.898;11.444;2022-10-31T00:53:24;12.73;;;5.60;;
61091;SDS011;46975;51.898;11.444;2022-10-31T00:55:50;15.18;;;6.93;;
61091;SDS011;46975;51.898;11.444;2022-10-31T00:58:16;10.48;;;5.32;;
61091;SDS011;46975;51.898;11.444;2022-10-31T01:00:41;18.90;;;8.10;;
61091;SDS011;46975;51.898;11.444;2022-10-31T01:03:07;21.83;;;7.50;;
61091;SDS011;46975;51.898;11.444;2022-10-31T01:05:33;16.42;;;7.55;;
61091;SDS011;46975;51.898;11.444;2022-10-31T01:07:58;24.20;;;8.27;;
61091;SDS011;46975;51.898;11.444;2022-10-31T01:10:24;26.42;;;9.48;;
61091;SDS011;46975;51.898;11.444;2022-10-31T01:12:50;21.45;;;9.60;;
61091;SDS011;46975;51.898;11.444;2022-10-31T01:15:17;25.63;;;10.15;;
61091;SDS011;46975;51.898;11.444;2022-10-31T01:17:45;17.30;;;9.05;;
61091;SDS011;46975;51.898;11.444;2022-10-31T01:20:11;20.30;;;9.63;;
61091;SDS011;46975;51.898;11.444;2022-10-31T01:22:38;22.23;;;8.88;;
61091;SDS011;46975;51.898;11.444;2022-10-31T01:25:04;16.83;;;7.97;;
61091;SDS011;46975;51.898;11.444;2022-10-31T01:27:31;20.40;;;9.27;;
61091;SDS011;46975;51.898;11.444;2022-10-31T01:29:57;16.00;;;6.10;;
61091;SDS011;46975;51.898;11.444;2022-10-31T01:32:23;13.20;;;6.13;;
61091;SDS011;46975;51.898;11.444;2022-10-31T01:34:49;9.43;;;5.18;;
61091;SDS011;46975;51.898;11.444;2022-10-31T01:37:15;8.88;;;4.70;;
61091;SDS011;46975;51.898;11.444;2022-10-31T01:39:41;9.10;;;3.50;;
61091;SDS011;46975;51.898;11.444;2022-10-31T01:42:06;8.85;;;4.90;;
61091;SDS011;46975;51.898;11.444;2022-10-31T01:47:05;11.55;;;4.10;;
61091;SDS011;46975;51.898;11.444;2022-10-31T01:52:31;8.90;;;4.30;;
61091;SDS011;46975;51.898;11.444;2022-10-31T01:55:03;9.70;;;4.28;;
61091;SDS011;46975;51.898;11.444;2022-10-31T01:57:34;9.35;;;4.15;;
61091;SDS011;46975;51.898;11.444;2022-10-31T02:02:31;7.72;;;3.65;;
61091;SDS011;46975;51.898;11.444;2022-10-31T02:04:57;6.45;;;3.88;;
61091;SDS011;46975;51.898;11.444;2022-10-31T02:10:12;13.02;;;4.30;;
61091;SDS011;46975;51.898;11.444;2022-10-31T02:12:37;8.10;;;4.35;;
61091;SDS011;46975;51.898;11.444;2022-10-31T02:15:04;9.80;;;5.07;;
61091;SDS011;46975;51.898;11.444;2022-10-31T02:17:32;8.48;;;4.90;;
61091;SDS011;46975;51.898;11.444;2022-10-31T02:20:09;6.67;;;4.57;;
61091;SDS011;46975;51.898;11.444;2022-10-31T02:22:52;12.52;;;5.50;;
61091;SDS011;46975;51.898;11.444;2022-10-31T02:33:26;7.55;;;4.35;;
61091;SDS011;46975;51.898;11.444;2022-10-31T02:46:44;13.45;;;4.78;;
61091;SDS011;46975;51.898;11.444;2022-10-31T02:49:39;10.93;;;5.22;;
61091;SDS011;46975;51.898;11.444;2022-10-31T02:52:18;7.55;;;4.60;;
61091;SDS011;46975;51.898;11.444;2022-10-31T02:54:46;10.27;;;5.47;;
61091;SDS011;46975;51.898;11.444;2022-10-31T02:57:13;7.15;;;4.22;;
61091;SDS011;46975;51.898;11.444;2022-10-31T02:59:42;13.55;;;6.13;;
61091;SDS011;46975;51.898;11.444;2022-10-31T03:10:31;8.25;;;5.18;;
61091;SDS011;46975;51.898;11.444;2022-10-31T03:18:57;10.93;;;5.00;;
61091;SDS011;46975;51.898;11.444;2022-10-31T03:21:26;7.13;;;4.88;;
61091;SDS011;46975;51.898;11.444;2022-10-31T03:23:57;12.02;;;4.28;;
61091;SDS011;46975;51.898;11.444;2022-10-31T03:26:24;9.38;;;4.57;;
61091;SDS011;46975;51.898;11.444;2022-10-31T03:28:52;7.90;;;4.50;;
61091;SDS011;46975;51.898;11.444;2022-10-31T03:31:31;9.63;;;4.85;;
61091;SDS011;46975;51.898;11.444;2022-10-31T03:34:00;19.38;;;5.07;;
61091;SDS011;46975;51.898;11.444;2022-10-31T03:36:28;8.60;;;4.63;;
61091;SDS011;46975;51.898;11.444;2022-10-31T03:38:58;6.78;;;4.60;;
61091;SDS011;46975;51.898;11.444;2022-10-31T03:41:27;9.75;;;5.05;;
61091;SDS011;46975;51.898;11.444;2022-10-31T03:43:59;10.18;;;5.25;;
61091;SDS011;46975;51.898;11.444;2022-10-31T03:46:29;10.27;;;4.78;;
61091;SDS011;46975;51.898;11.444;2022-10-31T03:48:55;9.13;;;5.85;;
61091;SDS011;46975;51.898;11.444;2022-10-31T03:51:22;12.02;;;6.00;;
61091;SDS011;46975;51.898;11.444;2022-10-31T03:53:53;13.23;;;5.43;;
61091;SDS011;46975;51.898;11.444;2022-10-31T03:56:32;14.30;;;6.35;;
61091;SDS011;46975;51.898;11.444;2022-10-31T03:59:09;8.02;;;5.88;;
61091;SDS011;46975;51.898;11.444;2022-10-31T04:04:14;9.70;;;5.18;;
61091;SDS011;46975;51.898;11.444;2022-10-31T04:06:40;9.98;;;6.13;;
61091;SDS011;46975;51.898;11.444;2022-10-31T04:09:08;10.18;;;5.80;;
61091;SDS011;46975;51.898;11.444;2022-10-31T04:11:40;11.48;;;6.70;;
61091;SDS011;46975;51.898;11.444;2022-10-31T04:14:11;12.50;;;5.78;;
61091;SDS011;46975;51.898;11.444;2022-10-31T04:16:38;11.60;;;5.13;;
61091;SDS011;46975;51.898;11.444;2022-10-31T04:19:06;12.15;;;7.00;;
61091;SDS011;46975;51.898;11.444;2022-10-31T04:21:32;10.57;;;5.82;;
61091;SDS011;46975;51.898;11.444;2022-10-31T04:23:58;9.98;;;5.13;;
61091;SDS011;46975;51.898;11.444;2022-10-31T04:26:23;13.90;;;6.63;;
61091;SDS011;46975;51.898;11.444;2022-10-31T04:28:50;11.57;;;6.20;;
61091;SDS011;46975;51.898;11.444;2022-10-31T04:31:15;12.65;;;5.30;;
61091;SDS011;46975;51.898;11.444;2022-10-31T04:33:41;11.27;;;6.25;;
61091;SDS011;46975;51.898;11.444;2022-10-31T04:36:07;11.95;;;6.38;;
61091;SDS011;46975;51.898;11.444;2022-10-31T04:38:32;9.48;;;5.72;;
61091;SDS011;46975;51.898;11.444;2022-10-31T04:40:58;10.32;;;6.03;;
61091;SDS011;46975;51.898;11.444;2022-10-31T04:43:24;11.27;;;6.35;;
61091;SDS011;46975;51.898;11.444;2022-10-31T04:45:49;11.18;;;6.18;;
61091;SDS011;46975;51.898;11.444;2022-10-31T04:48:15;10.70;;;5.43;;
61091;SDS011;46975;51.898;11.444;2022-10-31T04:50:41;14.77;;;6.25;;
61091;SDS011;46975;51.898;11.444;2022-10-31T04:53:07;12.60;;;5.88;;
61091;SDS011;46975;51.898;11.444;2022-10-31T04:55:33;14.20;;;6.30;;
61091;SDS011;46975;51.898;11.444;2022-10-31T04:58:00;9.85;;;6.65;;
61091;SDS011;46975;51.898;11.444;2022-10-31T05:00:26;8.50;;;5.80;;
61091;SDS011;46975;51.898;11.444;2022-10-31T05:02:56;12.35;;;6.07;;
61091;SDS011;46975;51.898;11.444;2022-10-31T05:05:23;13.27;;;6.43;;
61091;SDS011;46975;51.898;11.444;2022-10-31T05:07:51;9.85;;;6.60;;
61091;SDS011;46975;51.898;11.444;2022-10-31T05:10:18;16.23;;;7.60;;
61091;SDS011;46975;51.898;11.444;2022-10-31T05:12:47;10.45;;;6.20;;
61091;SDS011;46975;51.898;11.444;2022-10-31T05:15:14;15.95;;;7.28;;
61091;SDS011;46975;51.898;11.444;2022-10-31T05:17:41;12.45;;;7.05;;
61091;SDS011;46975;51.898;11.444;2022-10-31T05:20:07;13.20;;;6.22;;
61091;SDS011;46975;51.898;11.444;2022-10-31T05:22:33;10.68;;;7.00;;
61091;SDS011;46975;51.898;11.444;2022-10-31T05:24:58;11.77;;;6.63;;
61091;SDS011;46975;51.898;11.444;2022-10-31T05:27:24;18.08;;;7.63;;
61091;SDS011;46975;51.898;11.444;2022-10-31T05:29:49;16.48;;;8.77;;
61091;SDS011;46975;51.898;11.444;2022-10-31T05:32:15;12.23;;;6.70;;
61091;SDS011;46975;51.898;11.444;2022-10-31T05:34:41;21.27;;;8.38;;
61091;SDS011;46975;51.898;11.444;2022-10-31T05:37:06;12.57;;;7.25;;
61091;SDS011;46975;51.898;11.444;2022-10-31T05:39:32;19.83;;;7.30;;
61091;SDS011;46975;51.898;11.444;2022-10-31T05:41:58;14.00;;;9.90;;
61091;SDS011;46975;51.898;11.444;2022-10-31T05:44:23;22.90;;;9.35;;
61091;SDS011;46975;51.898;11.444;2022-10-31T05:46:49;14.65;;;7.80;;
61091;SDS011;46975;51.898;11.444;2022-10-31T05:49:14;24.33;;;10.90;;
61091;SDS011;46975;51.898;11.444;2022-10-31T05:51:42;34.05;;;14.77;;
61091;SDS011;46975;51.898;11.444;2022-10-31T05:54:08;32.70;;;15.63;;
61091;SDS011;46975;51.898;11.444;2022-10-31T05:56:33;50.45;;;20.13;;
61091;SDS011;46975;51.898;11.444;2022-10-31T05:58:59;47.38;;;21.67;;
61091;SDS011;46975;51.898;11.444;2022-10-31T06:01:24;54.72;;;23.05;;
61091;SDS011;46975;51.898;11.444;2022-10-31T06:03:50;55.22;;;26.30;;
61091;SDS011;46975;51.898;11.444;2022-10-31T06:06:16;55.90;;;24.85;;
61091;SDS011;46975;51.898;11.444;2022-10-31T06:08:41;58.78;;;25.35;;
61091;SDS011;46975;51.898;11.444;2022-10-31T06:11:07;48.75;;;23.17;;
61091;SDS011;46975;51.898;11.444;2022-10-31T06:13:33;54.92;;;25.92;;
61091;SDS011;46975;51.898;11.444;2022-10-31T06:15:58;50.65;;;23.70;;
61091;SDS011;46975;51.898;11.444;2022-10-31T06:18:24;66.65;;;27.85;;
61091;SDS011;46975;51.898;11.444;2022-10-31T06:20:50;64.72;;;26.58;;
61091;SDS011;46975;51.898;11.444;2022-10-31T06:23:15;55.38;;;27.67;;
61091;SDS011;46975;51.898;11.444;2022-10-31T06:25:41;61.67;;;28.63;;
61091;SDS011;46975;51.898;11.444;2022-10-31T06:28:06;54.53;;;26.02;;
61091;SDS011;46975;51.898;11.444;2022-10-31T06:30:32;66.43;;;27.92;;
61091;SDS011;46975;51.898;11.444;2022-10-31T06:33:02;63.75;;;27.52;;
61091;SDS011;46975;51.898;11.444;2022-10-31T06:35:28;58.97;;;27.75;;
61091;SDS011;46975;51.898;11.444;2022-10-31T06:37:54;65.30;;;31.27;;
61091;SDS011;46975;51.898;11.444;2022-10-31T06:40:20;66.75;;;27.42;;
61091;SDS011;46975;51.898;11.444;2022-10-31T06:42:46;60.10;;;26.40;;
61091;SDS011;46975;51.898;11.444;2022-10-31T06:45:12;57.35;;;25.33;;
61091;SDS011;46975;51.898;11.444;2022-10-31T06:47:38;61.25;;;26.13;;
61091;SDS011;46975;51.898;11.444;2022-10-31T06:50:03;51.05;;;24.00;;
61091;SDS011;46975;51.898;11.444;2022-10-31T06:52:30;52.13;;;24.30;;
61091;SDS011;46975;51.898;11.444;2022-10-31T06:54:55;45.22;;;22.38;;
61091;SDS011;46975;51.898;11.444;2022-10-31T06:57:21;51.90;;;24.08;;
61091;SDS011;46975;51.898;11.444;2022-10-31T06:59:46;45.38;;;21.75;;
61091;SDS011;46975;51.898;11.444;2022-10-31T07:02:13;40.38;;;20.85;;
61091;SDS011;46975;51.898;11.444;2022-10-31T07:04:38;38.97;;;21.83;;
61091;SDS011;46975;51.898;11.444;2022-10-31T07:07:04;39.90;;;19.77;;
61091;SDS011;46975;51.898;11.444;2022-10-31T07:09:31;40.25;;;18.25;;
61091;SDS011;46975;51.898;11.444;2022-10-31T07:11:56;41.83;;;19.13;;
61091;SDS011;46975;51.898;11.444;2022-10-31T07:14:22;37.42;;;17.90;;
61091;SDS011;46975;51.898;11.444;2022-10-31T07:16:48;35.17;;;16.80;;
61091;SDS011;46975;51.898;11.444;2022-10-31T07:19:15;36.00;;;18.13;;
61091;SDS011;46975;51.898;11.444;2022-10-31T07:21:40;45.15;;;18.48;;
61091;SDS011;46975;51.898;11.444;2022-10-31T07:24:06;48.13;;;20.50;;
61091;SDS011;46975;51.898;11.444;2022-10-31T07:26:32;46.03;;;20.40;;
61091;SDS011;46975;51.898;11.444;2022-10-31T07:28:57;39.80;;;18.45;;
61091;SDS011;46975;51.898;11.444;2022-10-31T07:31:24;45.80;;;21.63;;
61091;SDS011;46975;51.898;11.444;2022-10-31T07:33:50;37.65;;;20.17;;
61091;SDS011;46975;51.898;11.444;2022-10-31T07:36:16;40.47;;;21.73;;
61091;SDS011;46975;51.898;11.444;2022-10-31T07:38:41;41.05;;;20.33;;
61091;SDS011;46975;51.898;11.444;2022-10-31T07:41:07;39.95;;;21.23;;
61091;SDS011;46975;51.898;11.444;2022-10-31T07:43:33;37.95;;;20.60;;
61091;SDS011;46975;51.898;11.444;2022-10-31T07:45:59;43.83;;;20.67;;
61091;SDS011;46975;51.898;11.444;2022-10-31T07:48:25;44.15;;;21.63;;
61091;SDS011;46975;51.898;11.444;2022-10-31T07:50:50;48.15;;;23.98;;
61091;SDS011;46975;51.898;11.444;2022-10-31T07:53:16;38.08;;;20.45;;
61091;SDS011;46975;51.898;11.444;2022-10-31T07:55:42;52.67;;;22.73;;
61091;SDS011;46975;51.898;11.444;2022-10-31T07:58:09;47.30;;;21.67;;
61091;SDS011;46975;51.898;11.444;2022-10-31T08:00:40;40.75;;;19.38;;
61091;SDS011;46975;51.898;11.444;2022-10-31T08:03:09;44.92;;;21.05;;
61091;SDS011;46975;51.898;11.444;2022-10-31T08:05:36;39.60;;;20.87;;
61091;SDS011;46975;51.898;11.444;2022-10-31T08:08:05;47.78;;;22.42;;
61091;SDS011;46975;51.898;11.444;2022-10-31T08:12:58;45.65;;;22.35;;
61091;SDS011;46975;51.898;11.444;2022-10-31T08:15:29;46.10;;;23.17;;
61091;SDS011;46975;51.898;11.444;2022-10-31T08:17:55;44.53;;;22.90;;
61091;SDS011;46975;51.898;11.444;2022-10-31T08:20:21;47.53;;;24.52;;
61091;SDS011;46975;51.898;11.444;2022-10-31T08:22:56;50.65;;;23.90;;
61091;SDS011;46975;51.898;11.444;2022-10-31T08:25:23;51.92;;;22.13;;
61091;SDS011;46975;51.898;11.444;2022-10-31T08:27:53;46.75;;;23.38;;
61091;SDS011;46975;51.898;11.444;2022-10-31T08:30:20;48.80;;;24.27;;
61091;SDS011;46975;51.898;11.444;2022-10-31T08:32:47;39.75;;;22.27;;
61091;SDS011;46975;51.898;11.444;2022-10-31T08:35:23;45.88;;;23.40;;
61091;SDS011;46975;51.898;11.444;2022-10-31T08:37:55;43.75;;;22.10;;
61091;SDS011;46975;51.898;11.444;2022-10-31T08:40:22;45.45;;;20.85;;
61091;SDS011;46975;51.898;11.444;2022-10-31T08:42:55;48.60;;;22.30;;
61091;SDS011;46975;51.898;11.444;2022-10-31T08:45:41;40.35;;;22.33;;
61091;SDS011;46975;51.898;11.444;2022-10-31T08:48:11;53.72;;;23.80;;
61091;SDS011;46975;51.898;11.444;2022-10-31T08:50:39;42.92;;;22.00;;
61091;SDS011;46975;51.898;11.444;2022-10-31T08:53:12;50.53;;;26.05;;
61091;SDS011;46975;51.898;11.444;2022-10-31T08:55:42;46.53;;;25.73;;
61091;SDS011;46975;51.898;11.444;2022-10-31T08:58:13;46.15;;;23.85;;
61091;SDS011;46975;51.898;11.444;2022-10-31T09:00:40;45.47;;;23.25;;
61091;SDS011;46975;51.898;11.444;2022-10-31T09:03:10;52.80;;;24.38;;
61091;SDS011;46975;51.898;11.444;2022-10-31T09:05:38;48.65;;;24.50;;
61091;SDS011;46975;51.898;11.444;2022-10-31T09:08:05;46.83;;;23.20;;
61091;SDS011;46975;51.898;11.444;2022-10-31T09:10:32;51.97;;;25.90;;
61091;SDS011;46975;51.898;11.444;2022-10-31T09:13:04;53.13;;;25.90;;
61091;SDS011;46975;51.898;11.444;2022-10-31T09:15:32;44.65;;;23.20;;
61091;SDS011;46975;51.898;11.444;2022-10-31T09:17:59;48.63;;;24.63;;
61091;SDS011;46975;51.898;11.444;2022-10-31T09:20:25;49.40;;;26.35;;
61091;SDS011;46975;51.898;11.444;2022-10-31T09:22:56;47.97;;;24.67;;
61091;SDS011;46975;51.898;11.444;2022-10-31T09:25:23;50.50;;;23.77;;
61091;SDS011;46975;51.898;11.444;2022-10-31T09:27:49;54.92;;;25.77;;
61091;SDS011;46975;51.898;11.444;2022-10-31T09:30:14;50.58;;;26.30;;
61091;SDS011;46975;51.898;11.444;2022-10-31T09:32:40;53.90;;;25.70;;
61091;SDS011;46975;51.898;11.444;2022-10-31T09:35:06;45.58;;;24.23;;
61091;SDS011;46975;51.898;11.444;2022-10-31T09:37:32;51.35;;;26.75;;
61091;SDS011;46975;51.898;11.444;2022-10-31T09:39:58;53.10;;;26.38;;
61091;SDS011;46975;51.898;11.444;2022-10-31T09:45:33;58.30;;;27.75;;
61091;SDS011;46975;51.898;11.444;2022-10-31T09:51:39;54.53;;;28.85;;
61091;SDS011;46975;51.898;11.444;2022-10-31T09:54:04;59.00;;;27.13;;
61091;SDS011;46975;51.898;11.444;2022-10-31T09:56:36;54.47;;;24.48;;
61091;SDS011;46975;51.898;11.444;2022-10-31T09:59:03;54.13;;;28.33;;
61091;SDS011;46975;51.898;11.444;2022-10-31T10:01:46;47.50;;;25.13;;
61091;SDS011;46975;51.898;11.444;2022-10-31T10:06:59;52.95;;;25.70;;
61091;SDS011;46975;51.898;11.444;2022-10-31T10:09:31;54.58;;;26.77;;
61091;SDS011;46975;51.898;11.444;2022-10-31T10:12:07;60.75;;;26.25;;
61091;SDS011;46975;51.898;11.444;2022-10-31T10:18:02;50.40;;;27.10;;
61091;SDS011;46975;51.898;11.444;2022-10-31T10:20:37;52.08;;;25.33;;
61091;SDS011;46975;51.898;11.444;2022-10-31T10:26:13;52.28;;;26.73;;
61091;SDS011;46975;51.898;11.444;2022-10-31T10:28:54;50.17;;;26.92;;
61091;SDS011;46975;51.898;11.444;2022-10-31T10:31:28;52.10;;;25.60;;
61091;SDS011;46975;51.898;11.444;2022-10-31T10:36:38;56.45;;;30.83;;
61091;SDS011;46975;51.898;11.444;2022-10-31T10:39:23;51.35;;;26.50;;
61091;SDS011;46975;51.898;11.444;2022-10-31T10:41:55;53.75;;;27.38;;
61091;SDS011;46975;51.898;11.444;2022-10-31T10:44:43;63.72;;;30.08;;
61091;SDS011;46975;51.898;11.444;2022-10-31T10:47:34;52.17;;;26.77;;
61091;SDS011;46975;51.898;11.444;2022-10-31T10:50:17;48.08;;;27.58;;
61091;SDS011;46975;51.898;11.444;2022-10-31T10:52:53;55.10;;;27.70;;
61091;SDS011;46975;51.898;11.444;2022-10-31T10:58:29;59.50;;;29.05;;
61091;SDS011;46975;51.898;11.444;2022-10-31T11:00:54;53.03;;;25.38;;
61091;SDS011;46975;51.898;11.444;2022-10-31T11:03:20;57.38;;;26.27;;
61091;SDS011;46975;51.898;11.444;2022-10-31T11:05:53;55.60;;;26.75;;
61091;SDS011;46975;51.898;11.444;2022-10-31T11:08:28;55.28;;;26.85;;
61091;SDS011;46975;51.898;11.444;2022-10-31T11:10:58;47.90;;;27.20;;
61091;SDS011;46975;51.898;11.444;2022-10-31T11:13:28;54.67;;;25.08;;
61091;SDS011;46975;51.898;11.444;2022-10-31T11:18:27;51.10;;;25.33;;
61091;SDS011;46975;51.898;11.444;2022-10-31T11:20:56;46.05;;;25.50;;
61091;SDS011;46975;51.898;11.444;2022-10-31T11:23:24;50.20;;;23.77;;
61091;SDS011;46975;51.898;11.444;2022-10-31T11:25:55;42.05;;;25.25;;
61091;SDS011;46975;51.898;11.444;2022-10-31T11:28:21;51.15;;;27.08;;
61091;SDS011;46975;51.898;11.444;2022-10-31T11:30:47;50.00;;;24.15;;
61091;SDS011;46975;51.898;11.444;2022-10-31T11:33:26;47.53;;;23.80;;
61091;SDS011;46975;51.898;11.444;2022-10-31T11:35:57;47.45;;;24.52;;
61091;SDS011;46975;51.898;11.444;2022-10-31T11:38:24;47.28;;;23.83;;
61091;SDS011;46975;51.898;11.444;2022-10-31T11:41:15;42.92;;;24.45;;
61091;SDS011;46975;51.898;11.444;2022-10-31T11:43:48;45.88;;;25.45;;
61091;SDS011;46975;51.898;11.444;2022-10-31T11:46:18;49.85;;;25.58;;
61091;SDS011;46975;51.898;11.444;2022-10-31T11:49:00;46.97;;;24.63;;
61091;SDS011;46975;51.898;11.444;2022-10-31T11:51:31;54.78;;;27.25;;
61091;SDS011;46975;51.898;11.444;2022-10-31T11:54:00;54.85;;;26.33;;
61091;SDS011;46975;51.898;11.444;2022-10-31T11:56:37;56.70;;;26.48;;
61091;SDS011;46975;51.898;11.444;2022-10-31T11:59:05;47.95;;;26.83;;
61091;SDS011;46975;51.898;11.444;2022-10-31T12:01:39;47.08;;;24.15;;
61091;SDS011;46975;51.898;11.444;2022-10-31T12:04:10;52.75;;;26.25;;
61091;SDS011;46975;51.898;11.444;2022-10-31T12:06:38;57.47;;;27.23;;
61091;SDS011;46975;51.898;11.444;2022-10-31T12:17:27;51.70;;;25.77;;
61091;SDS011;46975;51.898;11.444;2022-10-31T12:36:00;48.80;;;27.38;;
61091;SDS011;46975;51.898;11.444;2022-10-31T12:38:35;54.42;;;26.67;;
61091;SDS011;46975;51.898;11.444;2022-10-31T12:43:57;49.08;;;25.35;;
61091;SDS011;46975;51.898;11.444;2022-10-31T12:57:58;51.58;;;25.38;;
61091;SDS011;46975;51.898;11.444;2022-10-31T13:00:28;50.70;;;26.40;;
61091;SDS011;46975;51.898;11.444;2022-10-31T13:03:00;54.88;;;25.45;;
61091;SDS011;46975;51.898;11.444;2022-10-31T13:06:03;54.35;;;28.65;;
61091;SDS011;46975;51.898;11.444;2022-10-31T13:11:39;49.78;;;26.60;;
61091;SDS011;46975;51.898;11.444;2022-10-31T13:14:24;52.30;;;28.20;;
61091;SDS011;46975;51.898;11.444;2022-10-31T13:17:03;59.08;;;28.80;;
61091;SDS011;46975;51.898;11.444;2022-10-31T13:19:31;57.90;;;26.80;;
61091;SDS011;46975;51.898;11.444;2022-10-31T13:27:38;51.10;;;26.63;;
61091;SDS011;46975;51.898;11.444;2022-10-31T13:30:31;59.03;;;27.17;;
61091;SDS011;46975;51.898;11.444;2022-10-31T13:33:05;50.92;;;26.33;;
61091;SDS011;46975;51.898;11.444;2022-10-31T13:38:39;58.15;;;29.63;;
61091;SDS011;46975;51.898;11.444;2022-10-31T13:41:58;64.40;;;29.60;;
61091;SDS011;46975;51.898;11.444;2022-10-31T13:46:46;69.72;;;32.17;;
61091;SDS011;46975;51.898;11.444;2022-10-31T13:54:34;70.40;;;33.78;;
61091;SDS011;46975;51.898;11.444;2022-10-31T13:57:01;69.50;;;32.80;;
61091;SDS011;46975;51.898;11.444;2022-10-31T13:59:31;71.95;;;32.47;;
61091;SDS011;46975;51.898;11.444;2022-10-31T14:02:01;70.72;;;32.47;;
61091;SDS011;46975;51.898;11.444;2022-10-31T14:04:38;80.93;;;37.13;;
61091;SDS011;46975;51.898;11.444;2022-10-31T14:07:21;80.20;;;33.28;;
61091;SDS011;46975;51.898;11.444;2022-10-31T14:15:17;74.78;;;34.63;;
61091;SDS011;46975;51.898;11.444;2022-10-31T14:17:54;89.73;;;35.27;;
61091;SDS011;46975;51.898;11.444;2022-10-31T14:20:41;83.53;;;35.80;;
61091;SDS011;46975;51.898;11.444;2022-10-31T14:26:06;76.85;;;34.65;;
61091;SDS011;46975;51.898;11.444;2022-10-31T14:34:02;84.63;;;35.08;;
61091;SDS011;46975;51.898;11.444;2022-10-31T14:36:37;78.35;;;33.17;;
61091;SDS011;46975;51.898;11.444;2022-10-31T14:39:18;80.35;;;35.95;;
61091;SDS011;46975;51.898;11.444;2022-10-31T14:41:58;85.20;;;35.22;;
61091;SDS011;46975;51.898;11.444;2022-10-31T14:47:42;86.07;;;37.28;;
61091;SDS011;46975;51.898;11.444;2022-10-31T14:55:29;90.72;;;37.25;;
61091;SDS011;46975;51.898;11.444;2022-10-31T15:00:22;83.90;;;38.35;;
61091;SDS011;46975;51.898;11.444;2022-10-31T15:05:42;82.40;;;36.53;;
61091;SDS011;46975;51.898;11.444;2022-10-31T15:08:57;76.00;;;36.22;;
61091;SDS011;46975;51.898;11.444;2022-10-31T15:11:16;74.07;;;32.55;;
61091;SDS011;46975;51.898;11.444;2022-10-31T15:13:50;65.30;;;30.70;;
61091;SDS011;46975;51.898;11.444;2022-10-31T15:16:21;71.95;;;30.73;;
61091;SDS011;46975;51.898;11.444;2022-10-31T15:18:58;79.40;;;34.13;;
61091;SDS011;46975;51.898;11.444;2022-10-31T15:23:54;85.22;;;33.45;;
61091;SDS011;46975;51.898;11.444;2022-10-31T15:26:22;107.45;;;34.33;;
61091;SDS011;46975;51.898;11.444;2022-10-31T15:29:05;94.72;;;35.30;;
61091;SDS011;46975;51.898;11.444;2022-10-31T15:31:37;84.20;;;37.03;;
61091;SDS011;46975;51.898;11.444;2022-10-31T15:34:07;81.28;;;34.30;;
61091;SDS011;46975;51.898;11.444;2022-10-31T15:36:42;74.22;;;33.92;;
61091;SDS011;46975;51.898;11.444;2022-10-31T15:39:11;81.75;;;33.00;;
61091;SDS011;46975;51.898;11.444;2022-10-31T15:41:46;78.35;;;33.40;;
61091;SDS011;46975;51.898;11.444;2022-10-31T15:44:27;83.22;;;32.75;;
61091;SDS011;46975;51.898;11.444;2022-10-31T15:51:56;74.82;;;30.85;;
61091;SDS011;46975;51.898;11.444;2022-10-31T15:54:25;68.45;;;32.40;;
61091;SDS011;46975;51.898;11.444;2022-10-31T15:56:51;83.53;;;33.70;;
61091;SDS011;46975;51.898;11.444;2022-10-31T15:59:19;100.88;;;34.38;;
61091;SDS011;46975;51.898;11.444;2022-10-31T16:01:58;84.45;;;31.17;;
61091;SDS011;46975;51.898;11.444;2022-10-31T16:04:32;95.22;;;33.47;;
61091;SDS011;46975;51.898;11.444;2022-10-31T16:07:02;77.78;;;31.58;;
61091;SDS011;46975;51.898;11.444;2022-10-31T16:09:48;87.40;;;32.42;;
61091;SDS011;46975;51.898;11.444;2022-10-31T16:12:26;88.20;;;32.63;;
61091;SDS011;46975;51.898;11.444;2022-10-31T16:14:57;82.95;;;34.78;;
61091;SDS011;46975;51.898;11.444;2022-10-31T16:17:24;76.47;;;31.60;;
61091;SDS011;46975;51.898;11.444;2022-10-31T16:19:53;80.68;;;40.42;;
61091;SDS011;46975;51.898;11.444;2022-10-31T16:22:35;87.70;;;35.05;;
61091;SDS011;46975;51.898;11.444;2022-10-31T16:25:09;77.97;;;33.67;;
61091;SDS011;46975;51.898;11.444;2022-10-31T16:27:48;73.03;;;31.10;;
61091;SDS011;46975;51.898;11.444;2022-10-31T16:30:27;75.00;;;30.13;;
61091;SDS011;46975;51.898;11.444;2022-10-31T16:36:01;77.70;;;30.42;;
61091;SDS011;46975;51.898;11.444;2022-10-31T16:38:59;110.00;;;32.97;;
61091;SDS011;46975;51.898;11.444;2022-10-31T16:41:25;136.88;;;35.75;;
61091;SDS011;46975;51.898;11.444;2022-10-31T16:43:51;97.30;;;34.33;;
61091;SDS011;46975;51.898;11.444;2022-10-31T16:46:24;110.72;;;35.63;;
61091;SDS011;46975;51.898;11.444;2022-10-31T16:48:51;171.05;;;39.78;;
61091;SDS011;46975;51.898;11.444;2022-10-31T16:51:17;122.97;;;38.30;;
61091;SDS011;46975;51.898;11.444;2022-10-31T16:53:43;115.53;;;37.58;;
61091;SDS011;46975;51.898;11.444;2022-10-31T16:56:14;133.57;;;38.60;;
61091;SDS011;46975;51.898;11.444;2022-10-31T16:59:10;112.40;;;35.05;;
61091;SDS011;46975;51.898;11.444;2022-10-31T17:01:37;114.45;;;34.90;;
61091;SDS011;46975;51.898;11.444;2022-10-31T17:04:04;99.18;;;35.53;;
61091;SDS011;46975;51.898;11.444;2022-10-31T17:06:30;108.50;;;36.05;;
61091;SDS011;46975;51.898;11.444;2022-10-31T17:08:55;88.60;;;35.75;;
61091;SDS011;46975;51.898;11.444;2022-10-31T17:11:22;76.72;;;33.25;;
61091;SDS011;46975;51.898;11.444;2022-10-31T17:13:50;113.20;;;37.20;;
61091;SDS011;46975;51.898;11.444;2022-10-31T17:16:17;156.48;;;39.97;;
61091;SDS011;46975;51.898;11.444;2022-10-31T17:18:42;117.38;;;37.92;;